Time;durP1;ratioP1;P1;durP2;ratioP2;P2;SDS_P1;SDS_P2;PMS_P1;PMS_P2;Temp;Humidity;BMP_temperature;BMP_pressure;BME280_temperature;BME280_humidity;BME280_pressure;Samples;Min_cycle;Max_cycle;Signal;HPM_P1;HPM_P2
2022/12/29 00:01:00;;;;;;;1.40;1.30;;;;;;;;;;5005457;28;20179;-53
2022/12/29 00:03:26;;;;;;;1.40;1.30;;;;;;;;;;5001756;28;20269;-52
2022/12/29 00:05:55;;;;;;;1.43;1.33;;;;;;;;;;5005363;28;20666;-51
2022/12/29 00:08:38;;;;;;;1.67;1.40;;;;;;;;;;5001317;28;20210;-50
2022/12/29 00:11:05;;;;;;;1.70;1.50;;;;;;;;;;5005019;28;20673;-53
2022/12/29 00:16:15;;;;;;;1.50;1.40;;;;;;;;;;5003910;28;20231;-52
2022/12/29 00:18:41;;;;;;;1.43;1.33;;;;;;;;;;5003299;28;20206;-52
2022/12/29 00:35:07;;;;;;;1.77;1.40;;;;;;;;;;4999052;28;20587;-51
2022/12/29 00:35:14;;;;;;;1.00;1.00;;;;;;;;;;5005616;28;20189;-51
2022/12/29 00:45:56;;;;;;;1.30;1.10;;;;;;;;;;4998262;28;21485;-52
2022/12/29 00:51:07;;;;;;;1.70;1.30;;;;;;;;;;4992644;28;20631;-53
2022/12/29 00:53:33;;;;;;;1.30;1.20;;;;;;;;;;4994558;28;20228;-53
2022/12/29 00:56:00;;;;;;;4.77;1.20;;;;;;;;;;5000685;28;20190;-53
2022/12/29 00:58:29;;;;;;;1.10;1.10;;;;;;;;;;5003815;28;20653;-53
2022/12/29 01:01:05;;;;;;;1.63;1.47;;;;;;;;;;5003285;28;20830;-53
2022/12/29 01:03:32;;;;;;;1.30;1.20;;;;;;;;;;5001888;28;20280;-53
2022/12/29 01:06:01;;;;;;;1.20;1.20;;;;;;;;;;5006027;28;20185;-53
2022/12/29 01:08:30;;;;;;;1.00;1.00;;;;;;;;;;5001699;28;20178;-52
2022/12/29 01:11:04;;;;;;;1.60;1.10;;;;;;;;;;5004683;28;20271;-53
2022/12/29 01:13:30;;;;;;;1.20;1.20;;;;;;;;;;5000550;28;20174;-54
2022/12/29 01:22:04;;;;;;;1.20;1.20;;;;;;;;;;5004068;28;20232;-53
2022/12/29 01:24:30;;;;;;;1.00;1.00;;;;;;;;;;5002466;28;20183;-55
2022/12/29 01:26:56;;;;;;;1.10;1.00;;;;;;;;;;5005499;28;20236;-53
2022/12/29 01:29:22;;;;;;;1.40;1.30;;;;;;;;;;5002502;28;20339;-53
2022/12/29 01:31:49;;;;;;;1.00;1.00;;;;;;;;;;5004607;28;20240;-53
2022/12/29 01:34:15;;;;;;;1.27;1.27;;;;;;;;;;5003498;28;20556;-54
2022/12/29 01:36:41;;;;;;;1.30;1.17;;;;;;;;;;5000578;28;20723;-53
2022/12/29 01:39:07;;;;;;;1.10;1.10;;;;;;;;;;4999342;28;20918;-53
2022/12/29 01:41:33;;;;;;;1.63;1.53;;;;;;;;;;5003890;28;20810;-53
2022/12/29 01:44:01;;;;;;;1.00;1.00;;;;;;;;;;5006342;28;20274;-53
2022/12/29 01:46:36;;;;;;;1.30;1.20;;;;;;;;;;5004481;28;20176;-53
2022/12/29 01:49:12;;;;;;;1.10;1.10;;;;;;;;;;5006854;28;20185;-52
2022/12/29 01:51:39;;;;;;;1.10;1.10;;;;;;;;;;5006053;28;20895;-53
2022/12/29 01:54:08;;;;;;;0.90;0.90;;;;;;;;;;5001889;28;20175;-52
2022/12/29 01:56:34;;;;;;;1.00;1.00;;;;;;;;;;5003927;28;20183;-52
2022/12/29 01:59:03;;;;;;;1.00;1.00;;;;;;;;;;5004573;28;20179;-52
2022/12/29 02:01:29;;;;;;;1.10;1.10;;;;;;;;;;4998529;28;20178;-54
2022/12/29 02:03:55;;;;;;;1.10;1.10;;;;;;;;;;4991298;28;20237;-54
2022/12/29 02:06:28;;;;;;;0.97;0.97;;;;;;;;;;4998731;28;20656;-53
2022/12/29 02:08:56;;;;;;;1.10;1.10;;;;;;;;;;5004091;28;20221;-53
2022/12/29 02:11:24;;;;;;;1.23;1.20;;;;;;;;;;5007781;28;20416;-53
2022/12/29 02:13:50;;;;;;;1.00;1.00;;;;;;;;;;5003942;28;20175;-54
2022/12/29 02:16:25;;;;;;;1.17;1.17;;;;;;;;;;5004935;28;20175;-53
2022/12/29 02:19:14;;;;;;;1.27;1.17;;;;;;;;;;5006562;28;20606;-53
2022/12/29 02:21:53;;;;;;;1.00;1.00;;;;;;;;;;4990082;28;20186;-53
2022/12/29 02:24:39;;;;;;;1.30;1.20;;;;;;;;;;4985237;28;20185;-53
2022/12/29 02:27:19;;;;;;;1.20;1.13;;;;;;;;;;4941880;28;20187;-54
2022/12/29 02:29:45;;;;;;;1.10;1.00;;;;;;;;;;4998735;28;20702;-54
2022/12/29 02:32:16;;;;;;;1.00;1.00;;;;;;;;;;5002716;28;20487;-53
2022/12/29 02:35:02;;;;;;;1.10;1.10;;;;;;;;;;5004864;28;20238;-53
2022/12/29 02:37:33;;;;;;;1.73;1.43;;;;;;;;;;4992369;28;20194;-53
2022/12/29 02:40:11;;;;;;;1.30;1.20;;;;;;;;;;4984760;28;20530;-53
2022/12/29 02:42:44;;;;;;;1.20;1.10;;;;;;;;;;5002706;28;20649;-53
2022/12/29 02:45:44;;;;;;;3.77;1.60;;;;;;;;;;5002815;28;20606;-53
2022/12/29 02:48:45;;;;;;;1.23;1.17;;;;;;;;;;4971382;28;20190;-53
2022/12/29 02:51:17;;;;;;;2.30;1.43;;;;;;;;;;4965088;28;20215;-54
2022/12/29 02:56:27;;;;;;;1.57;1.47;;;;;;;;;;5005279;28;20185;-53
2022/12/29 02:58:54;;;;;;;1.60;1.50;;;;;;;;;;5003764;28;20179;-54
2022/12/29 03:01:26;;;;;;;1.47;1.10;;;;;;;;;;5005826;28;20241;-53
2022/12/29 03:04:10;;;;;;;1.43;1.30;;;;;;;;;;5004221;28;20668;-53
2022/12/29 03:06:55;;;;;;;1.97;1.30;;;;;;;;;;5006858;28;20641;-53
2022/12/29 03:09:21;;;;;;;1.43;1.20;;;;;;;;;;5004788;28;20193;-53
2022/12/29 03:12:08;;;;;;;1.40;1.30;;;;;;;;;;5003918;28;20206;-53
2022/12/29 03:17:29;;;;;;;1.70;1.40;;;;;;;;;;5000461;28;20261;-53
2022/12/29 03:19:59;;;;;;;1.40;1.30;;;;;;;;;;5007474;28;20186;-53
2022/12/29 03:22:27;;;;;;;2.10;1.47;;;;;;;;;;5004095;28;20189;-53
2022/12/29 03:25:06;;;;;;;1.47;1.30;;;;;;;;;;5001848;28;20190;-54
2022/12/29 03:27:35;;;;;;;1.50;1.40;;;;;;;;;;5002930;28;20741;-53
2022/12/29 03:30:05;;;;;;;1.53;1.43;;;;;;;;;;4999539;28;20191;-54
2022/12/29 03:32:36;;;;;;;2.07;1.37;;;;;;;;;;4993904;28;20198;-53
2022/12/29 03:35:03;;;;;;;1.40;1.30;;;;;;;;;;5007070;28;20712;-53
2022/12/29 03:37:33;;;;;;;1.70;1.60;;;;;;;;;;5004222;28;20539;-53
2022/12/29 03:39:59;;;;;;;1.70;1.20;;;;;;;;;;4998831;28;20182;-54
2022/12/29 03:42:28;;;;;;;1.70;1.10;;;;;;;;;;5004820;28;20722;-54
2022/12/29 03:44:56;;;;;;;2.10;1.30;;;;;;;;;;5006051;28;20535;-54
2022/12/29 03:47:22;;;;;;;2.33;1.60;;;;;;;;;;4978948;28;20233;-53
2022/12/29 03:49:49;;;;;;;2.13;1.40;;;;;;;;;;5005350;28;20182;-52
2022/12/29 03:52:15;;;;;;;1.63;1.37;;;;;;;;;;5003404;28;20500;-52
2022/12/29 03:54:41;;;;;;;1.63;1.23;;;;;;;;;;5001865;28;20552;-52
2022/12/29 03:57:07;;;;;;;1.97;1.30;;;;;;;;;;5003796;28;20661;-52
2022/12/29 03:59:33;;;;;;;1.23;1.20;;;;;;;;;;5003249;28;20633;-52
2022/12/29 04:08:06;;;;;;;1.10;1.00;;;;;;;;;;4993003;28;20188;-52
2022/12/29 04:10:32;;;;;;;1.10;1.00;;;;;;;;;;4998503;28;20265;-52
2022/12/29 04:12:58;;;;;;;1.17;1.07;;;;;;;;;;5003352;28;20596;-52
2022/12/29 04:15:26;;;;;;;0.97;0.97;;;;;;;;;;5004776;28;20266;-52
2022/12/29 04:17:52;;;;;;;1.67;1.53;;;;;;;;;;5001272;28;20318;-52
2022/12/29 04:23:04;;;;;;;1.30;1.20;;;;;;;;;;5003162;28;20292;-53
2022/12/29 04:25:31;;;;;;;1.80;1.20;;;;;;;;;;5003330;28;20190;-53
2022/12/29 04:27:57;;;;;;;1.20;1.03;;;;;;;;;;4997753;28;20233;-53
2022/12/29 04:30:23;;;;;;;1.40;1.10;;;;;;;;;;5003100;28;20218;-53
2022/12/29 04:32:50;;;;;;;1.20;1.10;;;;;;;;;;5002509;28;20179;-53
2022/12/29 04:35:16;;;;;;;1.67;1.20;;;;;;;;;;5005091;28;20257;-53
2022/12/29 04:37:42;;;;;;;1.30;1.20;;;;;;;;;;4999243;28;20210;-53
2022/12/29 04:40:08;;;;;;;2.33;2.23;;;;;;;;;;5005144;28;20183;-53
2022/12/29 04:42:34;;;;;;;1.00;1.00;;;;;;;;;;5004757;28;20185;-53
2022/12/29 04:45:00;;;;;;;1.50;1.40;;;;;;;;;;5001978;28;20202;-53
2022/12/29 04:47:26;;;;;;;1.90;1.20;;;;;;;;;;5000559;28;20182;-53
2022/12/29 04:49:52;;;;;;;1.60;1.50;;;;;;;;;;5003207;28;20205;-53
2022/12/29 04:52:18;;;;;;;1.30;1.20;;;;;;;;;;5002126;28;20656;-53
2022/12/29 04:54:44;;;;;;;1.93;1.33;;;;;;;;;;5001420;28;20218;-53
2022/12/29 04:57:10;;;;;;;1.37;1.27;;;;;;;;;;5003262;28;20644;-51
2022/12/29 04:59:36;;;;;;;2.57;1.33;;;;;;;;;;4988169;28;20175;-52
2022/12/29 05:02:03;;;;;;;1.63;1.17;;;;;;;;;;5002663;28;20193;-52
2022/12/29 05:04:29;;;;;;;1.50;1.40;;;;;;;;;;5002267;28;20645;-52
2022/12/29 05:06:55;;;;;;;1.73;1.23;;;;;;;;;;5003985;28;20194;-52
2022/12/29 05:09:21;;;;;;;1.00;1.00;;;;;;;;;;4995077;28;20273;-52
2022/12/29 05:11:47;;;;;;;1.20;1.10;;;;;;;;;;4992429;28;20210;-52
2022/12/29 05:14:13;;;;;;;1.30;1.13;;;;;;;;;;5003423;28;20717;-52
2022/12/29 05:16:45;;;;;;;2.20;1.30;;;;;;;;;;5003938;28;20534;-53
2022/12/29 05:19:11;;;;;;;2.37;1.20;;;;;;;;;;5000379;28;20538;-53
2022/12/29 05:21:37;;;;;;;1.73;1.20;;;;;;;;;;5001922;28;20232;-54
2022/12/29 05:24:03;;;;;;;1.27;1.17;;;;;;;;;;5002614;28;20505;-53
2022/12/29 05:26:29;;;;;;;1.00;1.00;;;;;;;;;;5001652;28;20182;-54
2022/12/29 05:28:55;;;;;;;1.20;1.10;;;;;;;;;;4999251;28;20680;-53
2022/12/29 05:31:21;;;;;;;1.90;1.10;;;;;;;;;;5003331;28;20210;-53
2022/12/29 05:33:47;;;;;;;3.73;1.20;;;;;;;;;;4998667;28;20229;-54
2022/12/29 05:36:13;;;;;;;1.60;1.13;;;;;;;;;;5002803;28;20178;-54
2022/12/29 05:38:39;;;;;;;1.07;1.07;;;;;;;;;;4998487;28;20175;-53
2022/12/29 05:41:12;;;;;;;1.50;1.40;;;;;;;;;;5005167;28;20182;-54
2022/12/29 05:43:38;;;;;;;3.17;1.50;;;;;;;;;;5002941;28;20170;-53
2022/12/29 05:46:04;;;;;;;1.40;1.30;;;;;;;;;;5001568;28;20175;-53
2022/12/29 05:48:30;;;;;;;1.97;1.10;;;;;;;;;;5000698;28;20261;-53
2022/12/29 05:50:56;;;;;;;1.83;1.17;;;;;;;;;;4993580;28;20725;-53
2022/12/29 05:53:22;;;;;;;2.10;1.33;;;;;;;;;;4999370;28;20648;-54
2022/12/29 05:55:48;;;;;;;1.30;1.20;;;;;;;;;;4998643;28;20217;-54
2022/12/29 05:58:15;;;;;;;0.93;0.93;;;;;;;;;;4995797;28;21132;-54
2022/12/29 06:00:41;;;;;;;1.43;1.30;;;;;;;;;;4999219;28;20541;-53
2022/12/29 06:03:07;;;;;;;1.30;1.17;;;;;;;;;;4972876;28;20183;-53
2022/12/29 06:05:33;;;;;;;1.97;1.43;;;;;;;;;;5000400;28;20516;-54
2022/12/29 06:07:59;;;;;;;1.13;1.03;;;;;;;;;;5003806;28;20642;-53
2022/12/29 06:10:25;;;;;;;1.33;1.10;;;;;;;;;;5000294;28;20848;-53
2022/12/29 06:12:51;;;;;;;2.20;1.40;;;;;;;;;;5006118;28;20732;-53
2022/12/29 06:15:17;;;;;;;2.17;1.57;;;;;;;;;;4992387;28;20197;-53
2022/12/29 06:17:43;;;;;;;1.57;1.47;;;;;;;;;;5004434;28;20700;-54
2022/12/29 06:20:10;;;;;;;1.50;1.40;;;;;;;;;;5003364;28;20179;-54
2022/12/29 06:22:36;;;;;;;1.50;1.40;;;;;;;;;;4990025;28;20752;-53
2022/12/29 06:25:02;;;;;;;1.60;1.50;;;;;;;;;;5005196;28;20214;-53
2022/12/29 06:27:29;;;;;;;1.77;1.67;;;;;;;;;;4998669;28;20682;-53
2022/12/29 06:29:55;;;;;;;1.90;1.47;;;;;;;;;;4971592;28;20186;-53
2022/12/29 06:32:21;;;;;;;2.73;1.63;;;;;;;;;;5004809;28;20233;-53
2022/12/29 06:34:47;;;;;;;2.10;1.87;;;;;;;;;;5005984;28;20308;-54
2022/12/29 06:37:14;;;;;;;1.93;1.40;;;;;;;;;;4996977;28;20593;-53
2022/12/29 06:39:40;;;;;;;2.47;1.60;;;;;;;;;;5005711;28;20175;-53
2022/12/29 06:42:06;;;;;;;1.40;1.30;;;;;;;;;;5004991;28;20178;-53
2022/12/29 06:44:32;;;;;;;2.10;1.70;;;;;;;;;;4988284;28;20581;-53
2022/12/29 06:46:58;;;;;;;1.80;1.53;;;;;;;;;;5005584;28;20541;-53
2022/12/29 06:49:24;;;;;;;3.77;1.87;;;;;;;;;;5004378;28;20264;-53
2022/12/29 06:51:50;;;;;;;1.60;1.50;;;;;;;;;;5004881;28;20198;-53
2022/12/29 06:54:16;;;;;;;2.27;1.90;;;;;;;;;;5003014;28;20182;-53
2022/12/29 06:56:42;;;;;;;2.43;1.60;;;;;;;;;;4998745;28;20182;-53
2022/12/29 06:59:09;;;;;;;1.60;1.50;;;;;;;;;;5003764;28;20167;-53
2022/12/29 07:01:35;;;;;;;1.40;1.30;;;;;;;;;;4993009;28;20644;-53
2022/12/29 07:04:02;;;;;;;1.33;1.23;;;;;;;;;;5000471;28;20262;-53
2022/12/29 07:06:28;;;;;;;1.80;1.50;;;;;;;;;;5003974;28;20178;-53
2022/12/29 07:08:54;;;;;;;1.77;1.67;;;;;;;;;;5003599;28;20179;-52
2022/12/29 07:11:21;;;;;;;1.40;1.30;;;;;;;;;;4999521;28;20657;-52
2022/12/29 07:13:47;;;;;;;4.10;1.90;;;;;;;;;;5004732;28;20181;-53
2022/12/29 07:16:13;;;;;;;1.80;1.50;;;;;;;;;;5005984;28;20232;-53
2022/12/29 07:18:39;;;;;;;1.90;1.70;;;;;;;;;;5000957;28;20669;-53
2022/12/29 07:21:05;;;;;;;2.67;1.63;;;;;;;;;;4987175;28;20187;-53
2022/12/29 07:23:31;;;;;;;2.93;1.70;;;;;;;;;;4998481;28;20174;-53
2022/12/29 07:26:08;;;;;;;2.93;1.37;;;;;;;;;;5003154;28;20616;-53
2022/12/29 07:28:35;;;;;;;1.50;1.40;;;;;;;;;;4998767;28;20221;-53
2022/12/29 07:31:01;;;;;;;1.50;1.40;;;;;;;;;;4998702;28;20611;-53
2022/12/29 07:33:29;;;;;;;2.03;1.70;;;;;;;;;;5004628;28;20179;-53
2022/12/29 07:35:55;;;;;;;5.20;1.67;;;;;;;;;;4994199;28;20229;-53
2022/12/29 07:38:21;;;;;;;2.30;1.83;;;;;;;;;;4995825;28;20191;-53
2022/12/29 07:40:47;;;;;;;3.70;1.73;;;;;;;;;;5005705;28;20224;-53
2022/12/29 07:43:13;;;;;;;2.03;1.40;;;;;;;;;;4999039;28;20179;-53
2022/12/29 07:45:39;;;;;;;2.43;1.67;;;;;;;;;;5004955;28;20661;-53
2022/12/29 07:48:09;;;;;;;2.70;1.93;;;;;;;;;;5006129;28;20182;-53
2022/12/29 07:50:35;;;;;;;2.27;1.40;;;;;;;;;;5004971;28;20175;-53
2022/12/29 07:53:02;;;;;;;2.00;1.70;;;;;;;;;;4979969;28;20673;-53
2022/12/29 07:55:28;;;;;;;4.17;1.57;;;;;;;;;;5014491;28;20404;-53
2022/12/29 07:57:55;;;;;;;2.87;1.50;;;;;;;;;;5006360;28;20182;-52
2022/12/29 08:00:21;;;;;;;3.30;1.50;;;;;;;;;;5001971;28;20534;-51
2022/12/29 08:02:47;;;;;;;3.27;1.93;;;;;;;;;;5005131;28;20179;-51
2022/12/29 08:05:13;;;;;;;5.93;2.20;;;;;;;;;;4999277;28;20503;-52
2022/12/29 08:07:39;;;;;;;4.53;1.80;;;;;;;;;;5003526;28;20186;-51
2022/12/29 08:10:06;;;;;;;4.77;1.93;;;;;;;;;;5003700;28;20265;-51
2022/12/29 08:12:32;;;;;;;2.00;1.60;;;;;;;;;;4982406;28;20207;-51
2022/12/29 08:14:58;;;;;;;3.00;2.00;;;;;;;;;;5004682;28;20174;-51
2022/12/29 08:17:24;;;;;;;1.90;1.60;;;;;;;;;;5004107;28;20201;-51
2022/12/29 08:19:50;;;;;;;4.07;1.80;;;;;;;;;;5005162;28;20183;-51
2022/12/29 08:22:16;;;;;;;3.63;2.00;;;;;;;;;;5004920;28;20175;-51
2022/12/29 08:24:42;;;;;;;3.50;1.67;;;;;;;;;;5004634;28;20178;-52
2022/12/29 08:27:08;;;;;;;2.70;1.50;;;;;;;;;;4985862;28;20532;-51
2022/12/29 08:29:35;;;;;;;3.37;1.90;;;;;;;;;;5002535;28;20536;-51
2022/12/29 08:32:01;;;;;;;6.57;1.87;;;;;;;;;;4986195;28;20410;-51
2022/12/29 08:34:27;;;;;;;3.33;1.53;;;;;;;;;;5006842;28;20280;-52
2022/12/29 08:36:53;;;;;;;3.93;1.63;;;;;;;;;;5005688;28;20186;-52
2022/12/29 08:39:19;;;;;;;4.17;1.60;;;;;;;;;;5003870;28;20407;-52
2022/12/29 08:41:45;;;;;;;6.43;1.80;;;;;;;;;;5002531;28;20190;-52
2022/12/29 08:44:11;;;;;;;2.83;1.70;;;;;;;;;;4976304;28;20193;-52
2022/12/29 08:46:37;;;;;;;1.97;1.53;;;;;;;;;;5001429;28;20614;-52
2022/12/29 08:49:03;;;;;;;2.30;1.60;;;;;;;;;;5001858;28;20274;-53
2022/12/29 08:51:29;;;;;;;2.40;1.90;;;;;;;;;;4999149;28;20198;-52
2022/12/29 08:53:55;;;;;;;3.20;1.87;;;;;;;;;;4994901;28;20728;-53
2022/12/29 08:56:23;;;;;;;3.87;1.47;;;;;;;;;;5007110;28;20167;-53
2022/12/29 08:58:49;;;;;;;4.17;1.73;;;;;;;;;;5006084;28;20174;-52
2022/12/29 09:01:15;;;;;;;4.87;1.80;;;;;;;;;;5009193;28;20185;-52
2022/12/29 09:03:41;;;;;;;2.43;1.97;;;;;;;;;;5009593;28;20232;-51
2022/12/29 09:06:07;;;;;;;6.57;1.83;;;;;;;;;;5008227;28;20178;-52
2022/12/29 09:08:33;;;;;;;7.43;1.50;;;;;;;;;;5006264;28;20221;-55
2022/12/29 09:11:07;;;;;;;4.03;1.83;;;;;;;;;;5008836;28;20198;-52
2022/12/29 09:13:33;;;;;;;2.13;1.70;;;;;;;;;;5008549;28;20229;-52
2022/12/29 09:16:00;;;;;;;5.00;2.43;;;;;;;;;;5009207;28;20620;-52
2022/12/29 09:18:26;;;;;;;5.50;1.90;;;;;;;;;;5005443;28;20655;-52
2022/12/29 09:20:58;;;;;;;4.83;2.30;;;;;;;;;;5009308;28;20812;-52
2022/12/29 09:23:24;;;;;;;3.60;2.10;;;;;;;;;;5007961;28;20629;-52
2022/12/29 09:25:50;;;;;;;6.77;2.10;;;;;;;;;;5005778;28;20182;-52
2022/12/29 09:28:17;;;;;;;9.20;2.33;;;;;;;;;;4994764;28;20181;-52
2022/12/29 09:30:43;;;;;;;8.67;2.00;;;;;;;;;;4999177;28;20180;-52
2022/12/29 09:33:09;;;;;;;4.17;1.80;;;;;;;;;;5002937;28;20213;-53
2022/12/29 09:35:35;;;;;;;4.57;1.53;;;;;;;;;;5004774;28;20743;-53
2022/12/29 09:38:01;;;;;;;2.47;1.70;;;;;;;;;;5007895;28;20175;-54
2022/12/29 09:40:34;;;;;;;4.77;1.80;;;;;;;;;;5007123;28;20171;-52
2022/12/29 09:43:12;;;;;;;4.17;2.20;;;;;;;;;;5004513;28;20210;-52
2022/12/29 09:45:45;;;;;;;6.03;1.90;;;;;;;;;;5000080;28;20186;-52
2022/12/29 09:48:20;;;;;;;3.70;2.73;;;;;;;;;;5010476;28;20573;-53
2022/12/29 09:51:00;;;;;;;4.70;1.90;;;;;;;;;;5011412;28;20530;-53
2022/12/29 09:53:30;;;;;;;5.40;1.87;;;;;;;;;;5010911;28;20282;-53
2022/12/29 09:55:57;;;;;;;6.70;2.30;;;;;;;;;;5011255;28;20167;-52
2022/12/29 09:58:29;;;;;;;5.47;2.60;;;;;;;;;;5010405;28;20179;-52
2022/12/29 10:00:58;;;;;;;6.97;2.83;;;;;;;;;;4989874;28;20665;-52
2022/12/29 10:03:26;;;;;;;11.87;2.43;;;;;;;;;;5009863;28;20178;-53
2022/12/29 10:06:12;;;;;;;11.80;3.70;;;;;;;;;;5004160;28;20186;-52
2022/12/29 10:08:41;;;;;;;4.10;2.07;;;;;;;;;;5005603;28;20182;-52
2022/12/29 10:11:32;;;;;;;10.07;1.87;;;;;;;;;;4976478;28;20229;-52
2022/12/29 10:14:16;;;;;;;6.13;1.93;;;;;;;;;;5011131;28;20179;-52
2022/12/29 10:16:54;;;;;;;3.53;1.63;;;;;;;;;;5005102;28;20546;-55
2022/12/29 10:19:20;;;;;;;4.87;1.97;;;;;;;;;;5009558;28;20487;-54
2022/12/29 10:22:06;;;;;;;4.07;1.70;;;;;;;;;;5001309;28;20193;-54
2022/12/29 10:24:34;;;;;;;5.23;2.13;;;;;;;;;;5009195;28;20182;-55
2022/12/29 10:27:00;;;;;;;1.93;1.77;;;;;;;;;;4991032;28;20196;-54
2022/12/29 10:29:33;;;;;;;3.00;1.77;;;;;;;;;;5007819;28;20664;-54
2022/12/29 10:32:01;;;;;;;5.10;1.83;;;;;;;;;;4998829;28;20604;-54
2022/12/29 10:34:32;;;;;;;7.60;2.67;;;;;;;;;;5005962;28;20778;-55
2022/12/29 10:37:00;;;;;;;3.63;1.53;;;;;;;;;;4994286;28;20182;-54
2022/12/29 10:39:33;;;;;;;4.97;1.90;;;;;;;;;;5006506;28;20174;-54
2022/12/29 10:42:04;;;;;;;4.63;2.00;;;;;;;;;;4997238;28;20178;-55
2022/12/29 10:47:37;;;;;;;6.33;2.20;;;;;;;;;;4993754;28;20190;-55
2022/12/29 10:50:03;;;;;;;4.27;2.10;;;;;;;;;;5004997;28;20174;-55
2022/12/29 10:52:31;;;;;;;3.57;1.90;;;;;;;;;;5006313;28;20222;-55
2022/12/29 10:55:02;;;;;;;4.13;1.53;;;;;;;;;;5003818;28;21620;-55
2022/12/29 10:57:40;;;;;;;5.10;1.60;;;;;;;;;;4984630;28;20634;-54
2022/12/29 11:00:14;;;;;;;4.20;1.77;;;;;;;;;;4983854;28;20545;-55
2022/12/29 11:02:44;;;;;;;4.83;2.20;;;;;;;;;;5020823;28;20180;-55
2022/12/29 11:05:10;;;;;;;4.77;1.87;;;;;;;;;;5006240;28;20183;-55
2022/12/29 11:07:36;;;;;;;4.33;2.23;;;;;;;;;;4982616;28;20171;-55
2022/12/29 11:10:17;;;;;;;7.10;1.67;;;;;;;;;;5002360;28;20179;-56
2022/12/29 11:13:01;;;;;;;2.60;1.83;;;;;;;;;;5008824;28;20201;-55
2022/12/29 11:15:28;;;;;;;3.00;1.83;;;;;;;;;;4995628;28;20182;-55
2022/12/29 11:17:57;;;;;;;3.03;1.70;;;;;;;;;;5002397;28;20210;-55
2022/12/29 11:20:31;;;;;;;3.70;2.40;;;;;;;;;;5006104;28;20179;-55
2022/12/29 11:22:57;;;;;;;2.07;1.53;;;;;;;;;;4996611;28;20209;-55
2022/12/29 11:25:30;;;;;;;6.00;2.17;;;;;;;;;;5001518;28;20336;-55
2022/12/29 11:27:58;;;;;;;4.07;2.17;;;;;;;;;;4983176;28;20183;-55
2022/12/29 11:30:25;;;;;;;2.83;1.50;;;;;;;;;;5005686;28;20183;-55
2022/12/29 11:32:53;;;;;;;4.90;1.50;;;;;;;;;;5005576;28;20209;-55
2022/12/29 11:35:35;;;;;;;3.93;1.50;;;;;;;;;;5001654;28;20567;-55
2022/12/29 11:38:02;;;;;;;5.27;2.07;;;;;;;;;;5005416;28;20212;-55
2022/12/29 11:40:29;;;;;;;3.97;1.67;;;;;;;;;;5007121;28;20669;-55
2022/12/29 11:42:57;;;;;;;2.63;1.47;;;;;;;;;;5000310;28;20339;-55
2022/12/29 11:45:25;;;;;;;3.40;1.90;;;;;;;;;;5005112;28;20658;-55
2022/12/29 11:47:52;;;;;;;2.27;1.50;;;;;;;;;;5000981;28;20179;-55
2022/12/29 11:50:20;;;;;;;5.03;2.13;;;;;;;;;;5004639;28;20253;-55
2022/12/29 11:52:48;;;;;;;5.03;1.83;;;;;;;;;;5001421;28;20684;-55
2022/12/29 11:55:33;;;;;;;3.43;1.77;;;;;;;;;;5007945;28;20720;-54
2022/12/29 11:58:01;;;;;;;3.63;1.70;;;;;;;;;;5001538;28;20205;-55
2022/12/29 12:00:28;;;;;;;4.80;1.83;;;;;;;;;;4999180;28;20593;-55
2022/12/29 12:03:02;;;;;;;5.60;1.97;;;;;;;;;;5000408;28;20187;-55
2022/12/29 12:05:35;;;;;;;2.23;1.70;;;;;;;;;;4997223;28;20515;-55
2022/12/29 12:08:10;;;;;;;3.77;1.90;;;;;;;;;;4999559;28;20235;-55
2022/12/29 12:10:44;;;;;;;4.17;1.50;;;;;;;;;;5008000;28;20182;-54
2022/12/29 12:13:22;;;;;;;6.30;1.60;;;;;;;;;;5003563;28;20186;-55
2022/12/29 12:16:02;;;;;;;6.77;2.37;;;;;;;;;;5007815;28;20740;-55
2022/12/29 12:18:34;;;;;;;4.70;1.70;;;;;;;;;;5003395;28;20194;-55
2022/12/29 12:21:06;;;;;;;5.97;2.17;;;;;;;;;;4982209;28;20189;-54
2022/12/29 12:23:46;;;;;;;3.97;2.17;;;;;;;;;;5001777;28;20692;-54
2022/12/29 12:26:14;;;;;;;2.80;1.70;;;;;;;;;;5005609;28;20193;-54
2022/12/29 12:28:50;;;;;;;5.10;1.90;;;;;;;;;;5004377;28;20266;-55
2022/12/29 12:31:19;;;;;;;4.50;1.50;;;;;;;;;;5005608;28;20563;-54
2022/12/29 12:33:51;;;;;;;4.33;1.87;;;;;;;;;;5003498;28;20182;-55
2022/12/29 12:36:36;;;;;;;7.13;1.97;;;;;;;;;;5003800;28;20219;-55
2022/12/29 12:39:09;;;;;;;4.60;1.90;;;;;;;;;;5004494;28;20182;-55
2022/12/29 12:41:46;;;;;;;5.27;2.47;;;;;;;;;;5002813;28;20621;-55
2022/12/29 12:44:31;;;;;;;3.97;1.70;;;;;;;;;;5000469;28;20256;-55
2022/12/29 12:47:09;;;;;;;6.97;2.33;;;;;;;;;;4998746;28;20193;-55
2022/12/29 12:49:35;;;;;;;5.37;2.00;;;;;;;;;;5002227;28;20186;-55
2022/12/29 12:52:24;;;;;;;3.97;2.43;;;;;;;;;;5005187;28;20210;-55
2022/12/29 12:55:08;;;;;;;4.83;1.77;;;;;;;;;;4996420;28;20179;-55
2022/12/29 12:57:46;;;;;;;3.60;2.53;;;;;;;;;;4999706;28;20816;-54
2022/12/29 13:00:17;;;;;;;5.30;1.50;;;;;;;;;;5007482;28;20210;-55
2022/12/29 13:02:46;;;;;;;4.73;2.13;;;;;;;;;;4996161;28;20543;-54
2022/12/29 13:05:19;;;;;;;4.80;1.90;;;;;;;;;;5002553;28;20202;-54
2022/12/29 13:08:00;;;;;;;4.80;2.23;;;;;;;;;;4996423;28;20201;-55
2022/12/29 13:10:29;;;;;;;3.80;1.60;;;;;;;;;;4995324;28;20195;-55
2022/12/29 13:13:12;;;;;;;7.63;2.07;;;;;;;;;;5002797;28;20743;-55
2022/12/29 13:15:40;;;;;;;6.07;2.07;;;;;;;;;;5003104;28;20194;-54
2022/12/29 13:18:19;;;;;;;6.53;2.10;;;;;;;;;;4999327;28;20286;-54
2022/12/29 13:20:53;;;;;;;3.33;1.80;;;;;;;;;;4997455;28;20638;-54
2022/12/29 13:23:25;;;;;;;8.17;2.90;;;;;;;;;;5002220;28;20618;-55
2022/12/29 13:26:10;;;;;;;3.87;1.93;;;;;;;;;;5000622;28;20273;-54
2022/12/29 13:28:52;;;;;;;3.07;1.60;;;;;;;;;;4996979;28;20734;-54
2022/12/29 13:31:18;;;;;;;6.17;1.90;;;;;;;;;;4993578;28;20207;-53
2022/12/29 13:33:56;;;;;;;4.23;1.90;;;;;;;;;;5004918;28;20651;-52
2022/12/29 13:36:49;;;;;;;3.13;1.73;;;;;;;;;;4725392;28;8042920;-53
2022/12/29 13:39:33;;;;;;;5.10;1.90;;;;;;;;;;5002168;28;20193;-52
2022/12/29 13:41:59;;;;;;;5.33;1.73;;;;;;;;;;5001746;28;20182;-54
2022/12/29 13:44:31;;;;;;;4.47;2.10;;;;;;;;;;4991392;28;20534;-54
2022/12/29 13:46:59;;;;;;;6.40;2.77;;;;;;;;;;4995456;28;20668;-54
2022/12/29 13:49:26;;;;;;;5.97;2.27;;;;;;;;;;5007179;28;20535;-54
2022/12/29 13:51:55;;;;;;;5.03;1.97;;;;;;;;;;5012508;28;20305;-54
2022/12/29 13:54:51;;;;;;;3.53;1.90;;;;;;;;;;5008396;28;20622;-54
2022/12/29 13:57:26;;;;;;;5.60;2.30;;;;;;;;;;4999049;28;20221;-54
2022/12/29 13:59:59;;;;;;;5.30;1.83;;;;;;;;;;5002185;28;20181;-54
2022/12/29 14:02:31;;;;;;;3.67;2.07;;;;;;;;;;4999159;28;20249;-54
2022/12/29 14:05:05;;;;;;;4.47;1.73;;;;;;;;;;5007559;28;20611;-54
2022/12/29 14:07:37;;;;;;;5.47;2.03;;;;;;;;;;5005812;28;20190;-54
2022/12/29 14:10:04;;;;;;;3.03;1.90;;;;;;;;;;4989480;28;20160;-54
2022/12/29 14:12:38;;;;;;;3.07;1.87;;;;;;;;;;4986794;28;20279;-54
2022/12/29 14:15:24;;;;;;;2.47;1.53;;;;;;;;;;5007484;28;20435;-55
2022/12/29 14:18:16;;;;;;;3.53;1.90;;;;;;;;;;5007860;28;20186;-54
2022/12/29 14:20:56;;;;;;;4.47;2.10;;;;;;;;;;5004854;28;20475;-54
2022/12/29 14:23:35;;;;;;;4.40;1.80;;;;;;;;;;5001250;28;20216;-55
2022/12/29 14:26:01;;;;;;;4.77;2.70;;;;;;;;;;5005083;28;20226;-54
2022/12/29 14:28:29;;;;;;;2.87;1.63;;;;;;;;;;4998340;28;20176;-55
2022/12/29 14:30:56;;;;;;;3.30;1.80;;;;;;;;;;4996531;28;20182;-55
2022/12/29 14:33:26;;;;;;;4.53;1.83;;;;;;;;;;5010569;28;20380;-54
2022/12/29 14:36:18;;;;;;;3.33;1.90;;;;;;;;;;5010937;28;20470;-55
2022/12/29 14:38:45;;;;;;;5.50;2.47;;;;;;;;;;4989111;28;20198;-54
2022/12/29 14:41:25;;;;;;;3.73;1.83;;;;;;;;;;4998110;28;20266;-54
2022/12/29 14:43:54;;;;;;;3.73;1.90;;;;;;;;;;5010891;28;20201;-54
2022/12/29 14:46:20;;;;;;;3.43;1.60;;;;;;;;;;5009724;28;20261;-54
2022/12/29 14:48:46;;;;;;;3.90;2.10;;;;;;;;;;5004890;28;20518;-54
2022/12/29 14:51:19;;;;;;;5.03;1.77;;;;;;;;;;5008332;28;20187;-55
2022/12/29 14:53:50;;;;;;;5.13;2.00;;;;;;;;;;5004377;28;20187;-54
2022/12/29 14:56:21;;;;;;;5.10;1.80;;;;;;;;;;5001393;28;20280;-54
2022/12/29 14:58:49;;;;;;;3.47;1.50;;;;;;;;;;5002721;28;20183;-54
2022/12/29 15:01:18;;;;;;;5.57;2.77;;;;;;;;;;5010331;28;20245;-54
2022/12/29 15:03:46;;;;;;;3.33;1.90;;;;;;;;;;5008483;28;20709;-55
2022/12/29 15:06:16;;;;;;;4.83;1.47;;;;;;;;;;5007418;28;20221;-54
2022/12/29 15:08:52;;;;;;;5.27;1.87;;;;;;;;;;5004972;28;20218;-55
2022/12/29 15:11:20;;;;;;;4.23;1.80;;;;;;;;;;5000012;28;20233;-54
2022/12/29 15:13:48;;;;;;;4.33;2.23;;;;;;;;;;5007649;28;20293;-54
2022/12/29 15:16:26;;;;;;;4.63;2.23;;;;;;;;;;5008987;28;20173;-54
2022/12/29 15:18:52;;;;;;;3.17;1.80;;;;;;;;;;5007744;28;20673;-54
2022/12/29 15:21:22;;;;;;;3.17;2.80;;;;;;;;;;5008687;28;20198;-54
2022/12/29 15:23:49;;;;;;;4.53;2.00;;;;;;;;;;5005953;28;20181;-54
2022/12/29 15:26:20;;;;;;;3.80;1.47;;;;;;;;;;5014308;28;20201;-54
2022/12/29 15:28:51;;;;;;;2.80;2.03;;;;;;;;;;4990902;28;20186;-55
2022/12/29 15:31:19;;;;;;;9.10;3.10;;;;;;;;;;5005986;28;20289;-54
2022/12/29 15:33:47;;;;;;;4.90;2.00;;;;;;;;;;5007241;28;20186;-54
2022/12/29 15:36:15;;;;;;;4.17;1.83;;;;;;;;;;5008620;28;20325;-54
2022/12/29 15:38:42;;;;;;;5.17;1.70;;;;;;;;;;5001955;28;20182;-54
2022/12/29 15:41:14;;;;;;;6.57;2.13;;;;;;;;;;5004895;28;20182;-54
2022/12/29 15:43:43;;;;;;;3.10;1.93;;;;;;;;;;5005444;28;20211;-54
2022/12/29 15:46:10;;;;;;;4.47;1.53;;;;;;;;;;5001741;28;20176;-54
2022/12/29 15:48:38;;;;;;;4.83;1.93;;;;;;;;;;4995785;28;20186;-53